createdAt,value
2022-08-22T00:00:27.840Z,8.05
2022-08-22T00:02:42.952Z,10.05
2022-08-22T00:02:43.870Z,11.05
2022-08-22T00:02:49.497Z,11.18
2022-08-22T00:02:53.684Z,9.65
2022-08-22T00:03:07.846Z,11.48
2022-08-22T00:05:59.874Z,14.20
2022-08-22T00:08:42.730Z,12.00
2022-08-22T00:11:25.891Z,10.57
2022-08-22T00:14:02.001Z,14.02
2022-08-22T00:16:44.001Z,15.13
2022-08-22T00:19:16.787Z,9.38
2022-08-22T00:22:02.227Z,12.23
2022-08-22T00:24:34.934Z,13.00
2022-08-22T00:27:16.367Z,17.80
2022-08-22T00:29:49.663Z,14.25
2022-08-22T00:32:50.979Z,16.40
2022-08-22T00:35:30.115Z,10.07
2022-08-22T00:38:19.491Z,7.38
2022-08-22T00:41:04.978Z,10.52
2022-08-22T00:43:43.801Z,11.05
2022-08-22T00:46:33.933Z,11.73
2022-08-22T00:49:22.252Z,9.93
2022-08-22T00:52:13.072Z,13.02
2022-08-22T00:54:54.972Z,8.98
2022-08-22T00:57:27.651Z,15.07
2022-08-22T01:00:14.140Z,14.57
2022-08-22T01:03:15.004Z,12.70
2022-08-22T01:05:49.193Z,10.65
2022-08-22T01:08:28.142Z,9.25
2022-08-22T01:11:27.984Z,10.38
2022-08-22T01:14:34.607Z,8.88
2022-08-22T01:17:11.079Z,15.43
2022-08-22T01:20:11.023Z,16.02
2022-08-22T01:23:00.500Z,10.13
2022-08-22T01:25:55.277Z,13.82
2022-08-22T01:28:59.461Z,10.43
2022-08-22T01:31:53.590Z,11.82
2022-08-22T01:34:29.264Z,10.75
2022-08-22T01:37:05.380Z,14.23
2022-08-22T01:40:01.745Z,12.73
2022-08-22T01:43:02.075Z,9.52
2022-08-22T01:46:00.880Z,9.27
2022-08-22T01:48:27.430Z,9.85
2022-08-22T01:50:58.422Z,10.43
2022-08-22T01:53:31.294Z,7.50
2022-08-22T01:56:18.500Z,10.15
2022-08-22T01:58:56.069Z,10.55
2022-08-22T02:01:51.106Z,9.07
2022-08-22T02:04:57.024Z,9.18
2022-08-22T02:07:31.726Z,12.20
2022-08-22T02:10:09.997Z,11.43
2022-08-22T02:13:02.679Z,16.75
2022-08-22T02:15:38.398Z,12.02
2022-08-22T02:18:05.036Z,12.07
2022-08-22T02:20:53.251Z,14.32
2022-08-22T02:23:30.371Z,7.78
2022-08-22T02:26:17.200Z,15.15
2022-08-22T02:29:12.215Z,12.02
2022-08-22T02:32:10.182Z,10.13
2022-08-22T02:34:43.477Z,12.55
2022-08-22T02:37:36.349Z,7.88
2022-08-22T02:40:41.250Z,14.32
2022-08-22T02:43:39.549Z,11.80
2022-08-22T02:46:24.603Z,9.88
2022-08-22T02:49:09.921Z,11.77
2022-08-22T02:52:18.661Z,12.18
2022-08-22T02:54:57.292Z,11.57
2022-08-22T02:57:53.365Z,8.38
2022-08-22T03:00:31.771Z,9.63
2022-08-22T03:02:59.654Z,10.93
2022-08-22T03:05:26.329Z,9.52
2022-08-22T03:08:21.040Z,8.93
2022-08-22T03:10:54.912Z,18.15
2022-08-22T03:14:06.334Z,12.45
2022-08-22T03:16:44.529Z,11.25
2022-08-22T03:19:22.399Z,14.10
2022-08-22T03:22:10.015Z,12.80
2022-08-22T03:25:05.032Z,11.27
2022-08-22T03:27:49.948Z,12.60
2022-08-22T03:30:22.081Z,10.45
2022-08-22T03:32:56.679Z,10.85
2022-08-22T03:35:42.207Z,14.55
2022-08-22T03:38:20.162Z,10.23
2022-08-22T03:41:21.159Z,16.80
2022-08-22T03:44:19.625Z,16.25
2022-08-22T03:47:29.570Z,14.18
2022-08-22T03:50:05.268Z,15.50
2022-08-22T03:53:10.346Z,11.20
2022-08-22T03:56:12.999Z,12.38
2022-08-22T03:59:10.372Z,15.23
2022-08-22T04:02:24.770Z,10.68
2022-08-22T04:05:15.328Z,11.15
2022-08-22T04:08:14.022Z,7.13
2022-08-22T04:11:08.064Z,7.28
2022-08-22T04:13:56.474Z,8.90
2022-08-22T04:16:29.554Z,8.27
2022-08-22T04:19:13.579Z,15.63
2022-08-22T04:22:14.244Z,10.40
2022-08-22T04:25:15.973Z,8.82
2022-08-22T04:27:54.529Z,13.77
2022-08-22T04:30:31.479Z,13.30
2022-08-22T04:33:11.045Z,10.45
2022-08-22T04:35:44.584Z,8.88
2022-08-22T04:38:22.708Z,11.93
2022-08-22T04:41:01.386Z,12.57
2022-08-22T04:43:38.770Z,13.90
2022-08-22T04:46:44.789Z,8.45
2022-08-22T04:49:15.317Z,13.75
2022-08-22T04:51:53.724Z,15.07
2022-08-22T04:54:37.521Z,13.32
2022-08-22T04:57:07.072Z,11.15
2022-08-22T04:59:35.114Z,9.57
2022-08-22T05:02:07.023Z,12.18
2022-08-22T05:04:49.109Z,11.23
2022-08-22T05:07:18.303Z,8.35
2022-08-22T05:09:59.085Z,11.10
2022-08-22T05:12:34.212Z,11.52
2022-08-22T05:15:34.081Z,13.95
2022-08-22T05:18:09.452Z,12.30
2022-08-22T05:20:39.286Z,10.52
2022-08-22T05:23:19.234Z,11.90
2022-08-22T05:25:50.087Z,8.52
2022-08-22T05:28:38.989Z,13.52
2022-08-22T05:31:13.876Z,14.98
2022-08-22T05:33:45.913Z,12.32
2022-08-22T05:36:19.263Z,12.82
2022-08-22T05:38:52.077Z,9.57
2022-08-22T05:41:26.063Z,10.68
2022-08-22T05:43:54.962Z,12.18
2022-08-22T05:46:27.538Z,8.52
2022-08-22T05:49:04.042Z,8.75
2022-08-22T05:54:14.248Z,13.30
2022-08-22T05:56:50.882Z,11.10
2022-08-22T06:02:00.064Z,9.18
2022-08-22T06:04:26.593Z,9.88
2022-08-22T06:07:03.483Z,15.25
2022-08-22T06:09:41.607Z,10.38
2022-08-22T06:12:22.194Z,11.90
2022-08-22T06:15:11.902Z,11.32
2022-08-22T06:17:43.813Z,9.90
2022-08-22T06:20:18.543Z,10.95
2022-08-22T06:22:52.597Z,13.95
2022-08-22T06:25:25.264Z,16.65
2022-08-22T06:27:53.821Z,12.30
2022-08-22T06:30:23.996Z,13.23
2022-08-22T06:33:00.079Z,11.70
2022-08-22T06:35:57.660Z,9.30
2022-08-22T06:38:33.720Z,13.27
2022-08-22T06:41:06.795Z,11.27
2022-08-22T06:43:40.402Z,11.65
2022-08-22T06:46:08.582Z,14.80
2022-08-22T06:48:37.019Z,15.43
2022-08-22T06:51:07.289Z,12.00
2022-08-22T06:53:47.700Z,14.77
2022-08-22T06:56:22.337Z,13.30
2022-08-22T06:58:55.447Z,15.15
2022-08-22T07:01:33.457Z,10.27
2022-08-22T07:04:07.686Z,18.83
2022-08-22T07:06:47.395Z,13.00
2022-08-22T07:09:22.039Z,10.70
2022-08-22T07:11:49.069Z,11.45
2022-08-22T07:14:18.275Z,12.98
2022-08-22T07:16:55.117Z,13.25
2022-08-22T07:19:26.817Z,12.73
2022-08-22T07:21:54.516Z,8.63
2022-08-22T07:24:25.794Z,9.23
2022-08-22T07:27:15.907Z,8.20
2022-08-22T07:30:10.026Z,10.77
2022-08-22T07:32:45.586Z,11.88
2022-08-22T07:35:20.853Z,12.00
2022-08-22T07:38:03.319Z,6.97
2022-08-22T07:40:41.835Z,11.20
2022-08-22T07:43:28.678Z,12.23
2022-08-22T07:46:19.375Z,10.48
2022-08-22T07:49:08.545Z,10.70
2022-08-22T07:51:35.894Z,7.70
2022-08-22T07:54:09.637Z,10.57
2022-08-22T07:56:56.486Z,10.10
2022-08-22T07:59:25.136Z,10.00
2022-08-22T08:01:57.047Z,8.32
2022-08-22T08:04:36.852Z,10.35
2022-08-22T08:07:10.683Z,8.65
2022-08-22T08:09:48.163Z,8.40
2022-08-22T08:12:16.000Z,11.82
2022-08-22T08:14:46.254Z,10.23
2022-08-22T08:17:22.088Z,11.32
2022-08-22T08:19:50.893Z,11.43
2022-08-22T08:22:27.521Z,6.95
2022-08-22T08:24:56.792Z,9.40
2022-08-22T08:27:50.469Z,10.65
2022-08-22T08:30:25.060Z,7.95
2022-08-22T08:32:57.609Z,7.10
2022-08-22T08:36:03.031Z,6.22
2022-08-22T08:38:38.350Z,3.95
2022-08-22T08:41:11.011Z,9.18
2022-08-22T08:43:40.857Z,10.77
2022-08-22T08:46:55.140Z,7.95
2022-08-22T08:49:25.396Z,5.03
2022-08-22T08:55:30.108Z,6.72
2022-08-22T08:57:59.001Z,4.85
2022-08-22T09:00:45.834Z,7.40
2022-08-22T09:03:51.391Z,6.65
2022-08-22T09:06:38.905Z,5.32
2022-08-22T09:09:43.246Z,4.43
2022-08-22T09:12:32.498Z,6.20
2022-08-22T09:15:23.633Z,9.38
2022-08-22T09:18:08.920Z,7.13
2022-08-22T09:20:59.058Z,6.78
2022-08-22T09:23:53.422Z,6.25
2022-08-22T09:26:32.430Z,11.15
2022-08-22T09:29:32.713Z,9.40
2022-08-22T09:32:33.857Z,8.88
2022-08-22T09:35:32.456Z,6.70
2022-08-22T09:38:36.852Z,7.25
2022-08-22T09:40:16.606Z,6.93
2022-08-22T09:41:31.749Z,7.95
2022-08-22T09:44:15.474Z,8.70
2022-08-22T09:47:13.166Z,11.43
2022-08-22T09:49:48.295Z,6.18
2022-08-22T09:52:54.887Z,7.57
2022-08-22T09:56:01.737Z,6.38
2022-08-22T09:59:02.842Z,10.70
2022-08-22T10:01:47.036Z,6.55
2022-08-22T10:04:25.713Z,7.30
2022-08-22T10:07:11.642Z,6.57
2022-08-22T10:09:55.797Z,12.68
2022-08-22T10:12:36.573Z,14.98
2022-08-22T10:15:16.870Z,9.05
2022-08-22T10:17:56.670Z,7.70
2022-08-22T10:20:29.962Z,4.78
2022-08-22T10:23:15.622Z,5.07
2022-08-22T10:25:48.460Z,5.40
2022-08-22T10:28:32.149Z,5.38
2022-08-22T10:31:20.539Z,5.88
2022-08-22T10:34:01.078Z,4.88
2022-08-22T10:37:05.046Z,3.92
2022-08-22T10:39:58.709Z,6.57
2022-08-22T10:42:30.124Z,3.78
2022-08-22T10:45:07.998Z,3.00
2022-08-22T10:47:55.161Z,2.40
2022-08-22T10:50:49.191Z,3.15
2022-08-22T10:53:33.339Z,2.47
2022-08-22T10:56:16.123Z,5.57
2022-08-22T10:58:56.045Z,4.20
2022-08-22T11:01:37.450Z,5.53
2022-08-22T11:04:28.333Z,3.40
2022-08-22T11:07:22.941Z,5.68
2022-08-22T11:10:01.631Z,3.10
2022-08-22T11:12:42.956Z,9.85
2022-08-22T11:15:24.204Z,7.00
2022-08-22T11:18:01.996Z,10.23
2022-08-22T11:20:46.804Z,5.95
2022-08-22T11:23:25.583Z,6.40
2022-08-22T11:26:33.497Z,8.40
2022-08-22T11:29:29.372Z,7.85
2022-08-22T11:32:16.920Z,4.70
2022-08-22T11:34:50.150Z,7.30
2022-08-22T11:37:38.838Z,7.22
2022-08-22T11:40:24.828Z,4.60
2022-08-22T11:43:26.778Z,4.55
2022-08-22T11:45:59.405Z,3.92
2022-08-22T11:48:47.422Z,3.38
2022-08-22T11:51:30.507Z,6.57
2022-08-22T11:54:19.754Z,4.15
2022-08-22T11:57:04.078Z,7.05
2022-08-22T11:59:43.224Z,5.22
2022-08-22T12:02:31.143Z,6.07
2022-08-22T12:05:09.365Z,5.97
2022-08-22T12:07:49.138Z,3.60
2022-08-22T12:10:25.567Z,6.57
2022-08-22T12:13:10.441Z,5.53
2022-08-22T12:15:55.964Z,4.47
2022-08-22T12:19:01.050Z,9.80
2022-08-22T12:21:38.413Z,4.78
2022-08-22T12:24:11.252Z,3.42
2022-08-22T12:27:07.957Z,8.02
2022-08-22T12:30:14.604Z,4.25
2022-08-22T12:33:02.367Z,3.75
2022-08-22T12:35:38.330Z,3.85
2022-08-22T12:38:31.283Z,7.47
2022-08-22T12:41:28.518Z,6.65
2022-08-22T12:44:20.222Z,5.95
2022-08-22T12:47:04.227Z,5.28
2022-08-22T12:49:38.481Z,8.00
2022-08-22T12:52:42.445Z,3.65
2022-08-22T12:55:25.051Z,6.75
2022-08-22T12:58:13.855Z,7.30
2022-08-22T13:00:45.162Z,6.22
2022-08-22T13:03:23.439Z,7.20
2022-08-22T13:05:59.815Z,5.05
2022-08-22T13:08:38.080Z,5.32
2022-08-22T13:11:22.762Z,6.63
2022-08-22T13:13:56.437Z,8.38
2022-08-22T13:16:25.054Z,10.18
2022-08-22T13:18:57.301Z,7.03
2022-08-22T13:21:31.994Z,7.15
2022-08-22T13:24:52.510Z,4.72
2022-08-22T13:27:29.788Z,10.23
2022-08-22T13:30:04.826Z,5.43
2022-08-22T13:32:44.297Z,6.57
2022-08-22T13:35:20.730Z,10.40
2022-08-22T13:37:58.190Z,6.40
2022-08-22T13:40:29.116Z,11.65
2022-08-22T13:43:06.034Z,8.65
2022-08-22T13:45:35.406Z,4.90
2022-08-22T13:48:14.104Z,5.00
2022-08-22T13:51:21.251Z,12.57
2022-08-22T13:54:10.815Z,9.27
2022-08-22T13:57:08.515Z,8.13
2022-08-22T13:59:59.506Z,9.18
2022-08-22T14:02:55.204Z,6.47
2022-08-22T14:05:29.126Z,6.13
2022-08-22T14:08:19.896Z,7.38
2022-08-22T14:11:16.861Z,8.07
2022-08-22T14:16:32.159Z,5.15
2022-08-22T14:19:06.245Z,7.97
2022-08-22T14:21:50.740Z,6.05
2022-08-22T14:24:19.959Z,5.45
2022-08-22T14:27:13.402Z,4.80
2022-08-22T14:29:50.179Z,6.32
2022-08-22T14:32:22.697Z,6.05
2022-08-22T14:35:11.140Z,5.15
2022-08-22T14:37:54.225Z,6.57
2022-08-22T14:40:36.475Z,6.35
2022-08-22T14:43:09.217Z,5.15
2022-08-22T14:45:40.185Z,7.55
2022-08-22T14:48:30.443Z,4.85
2022-08-22T14:51:21.251Z,6.93
2022-08-22T14:53:49.979Z,10.27
2022-08-22T14:56:24.702Z,5.78
2022-08-22T14:59:03.101Z,5.18
2022-08-22T15:01:35.079Z,5.22
2022-08-22T15:04:08.405Z,8.60
2022-08-22T15:06:37.025Z,8.00
2022-08-22T15:09:37.585Z,4.95
2022-08-22T15:12:30.693Z,6.68
2022-08-22T15:15:00.774Z,6.75
2022-08-22T15:17:36.769Z,4.82
2022-08-22T15:20:27.713Z,3.97
2022-08-22T15:23:00.778Z,5.95
2022-08-22T15:25:36.309Z,7.50
2022-08-22T15:28:14.350Z,6.75
2022-08-22T15:31:03.556Z,5.03
2022-08-22T15:33:39.017Z,5.20
2022-08-22T15:36:24.236Z,4.30
2022-08-22T15:38:52.435Z,5.07
2022-08-22T15:41:21.984Z,4.85
2022-08-22T15:43:52.061Z,6.47
2022-08-22T15:46:30.649Z,3.78
2022-08-22T15:49:03.876Z,6.20
2022-08-22T15:51:47.340Z,6.45
2022-08-22T15:54:24.594Z,7.13
2022-08-22T15:57:10.094Z,6.90
2022-08-22T15:59:57.698Z,12.77
2022-08-22T16:02:40.045Z,5.50
2022-08-22T16:05:10.216Z,7.30
2022-08-22T16:07:42.239Z,4.45
2022-08-22T16:10:29.947Z,5.65
2022-08-22T16:13:35.621Z,7.75
2022-08-22T16:16:24.597Z,8.00
2022-08-22T16:18:51.042Z,7.85
2022-08-22T16:21:17.711Z,7.45
2022-08-22T16:23:50.586Z,5.07
2022-08-22T16:26:38.618Z,5.43
2022-08-22T16:29:15.040Z,8.18
2022-08-22T16:31:44.594Z,4.22
2022-08-22T16:34:17.118Z,5.90
2022-08-22T16:37:05.126Z,10.20
2022-08-22T16:39:37.718Z,9.35
2022-08-22T16:42:13.777Z,5.32
2022-08-22T16:44:46.810Z,7.18
2022-08-22T16:47:24.601Z,7.25
2022-08-22T16:49:51.054Z,3.83
2022-08-22T16:52:20.905Z,6.28
2022-08-22T16:54:49.724Z,7.10
2022-08-22T16:57:24.566Z,7.75
2022-08-22T17:00:06.405Z,4.00
2022-08-22T17:03:11.420Z,5.97
2022-08-22T17:06:00.851Z,4.80
2022-08-22T17:08:45.184Z,3.03
2022-08-22T17:11:30.478Z,2.72
2022-08-22T17:13:59.854Z,2.80
2022-08-22T17:16:54.365Z,4.68
2022-08-22T17:20:03.591Z,4.45
2022-08-22T17:22:45.400Z,4.32
2022-08-22T17:25:14.935Z,5.53
2022-08-22T17:27:44.973Z,3.35
2022-08-22T17:30:27.594Z,1.73
2022-08-22T17:33:15.722Z,2.67
2022-08-22T17:36:00.197Z,3.63
2022-08-22T17:38:54.228Z,2.25
2022-08-22T17:41:46.998Z,2.40
2022-08-22T17:44:21.244Z,4.28
2022-08-22T17:46:52.403Z,3.95
2022-08-22T17:49:40.866Z,2.42
2022-08-22T17:52:15.170Z,1.80
2022-08-22T17:55:26.765Z,2.03
2022-08-22T17:58:04.778Z,3.13
2022-08-22T18:00:39.159Z,2.63
2022-08-22T18:03:18.672Z,2.85
2022-08-22T18:05:53.117Z,3.30
2022-08-22T18:09:13.299Z,3.72
2022-08-22T18:11:43.094Z,2.10
2022-08-22T18:14:36.047Z,3.25
2022-08-22T18:17:17.230Z,1.63
2022-08-22T18:19:56.303Z,3.65
2022-08-22T18:22:31.643Z,6.70
2022-08-22T18:24:58.095Z,6.30
2022-08-22T18:27:43.225Z,3.08
2022-08-22T18:30:20.945Z,3.08
2022-08-22T18:33:14.862Z,2.13
2022-08-22T18:35:53.791Z,2.42
2022-08-22T18:38:34.611Z,4.75
2022-08-22T18:41:24.125Z,3.05
2022-08-22T18:43:53.629Z,4.35
2022-08-22T18:46:38.533Z,3.95
2022-08-22T18:49:20.602Z,2.15
2022-08-22T18:52:19.717Z,1.88
2022-08-22T18:55:40.833Z,5.60
2022-08-22T18:58:42.416Z,1.83
2022-08-22T19:01:41.330Z,2.75
2022-08-22T19:04:48.721Z,2.88
2022-08-22T19:07:45.411Z,2.45
2022-08-22T19:10:32.130Z,1.88
2022-08-22T19:13:35.621Z,0.90
2022-08-22T19:16:15.738Z,1.48
2022-08-22T19:18:59.075Z,3.60
2022-08-22T19:21:55.251Z,1.38
2022-08-22T19:24:27.605Z,2.92
2022-08-22T19:27:19.102Z,1.02
2022-08-22T19:29:45.560Z,1.48
2022-08-22T19:32:47.045Z,1.30
2022-08-22T19:35:22.504Z,3.63
2022-08-22T19:37:58.308Z,1.27
2022-08-22T19:40:58.350Z,2.53
2022-08-22T19:43:36.851Z,1.77
2022-08-22T19:46:10.918Z,2.00
2022-08-22T19:48:50.318Z,1.40
2022-08-22T19:51:27.721Z,1.55
2022-08-22T19:54:10.060Z,3.78
2022-08-22T19:56:56.939Z,2.83
2022-08-22T19:59:36.772Z,2.95
2022-08-22T20:02:18.818Z,1.98
2022-08-22T20:05:12.787Z,1.65
2022-08-22T20:07:55.128Z,1.30
2022-08-22T20:10:49.689Z,2.88
2022-08-22T20:13:25.969Z,3.42
2022-08-22T20:16:11.312Z,2.95
2022-08-22T20:19:07.728Z,4.32
2022-08-22T20:24:08.720Z,5.65
2022-08-22T20:26:47.482Z,3.45
2022-08-22T20:29:31.257Z,3.17
2022-08-22T20:31:59.112Z,2.15
2022-08-22T20:34:32.671Z,2.25
2022-08-22T20:37:27.251Z,3.13
2022-08-22T20:40:57.733Z,4.45
2022-08-22T20:43:54.797Z,2.63
2022-08-22T20:46:21.264Z,3.58
2022-08-22T20:48:53.670Z,5.88
2022-08-22T20:51:24.940Z,4.75
2022-08-22T20:53:58.778Z,7.60
2022-08-22T20:56:37.119Z,12.48
2022-08-22T20:59:24.671Z,10.00
2022-08-22T21:02:29.328Z,12.15
2022-08-22T21:05:03.164Z,9.82
2022-08-22T21:07:31.826Z,3.83
2022-08-22T21:10:44.334Z,4.93
2022-08-22T21:13:12.187Z,2.97
2022-08-22T21:15:43.782Z,5.88
2022-08-22T21:18:13.374Z,4.25
2022-08-22T21:20:41.058Z,2.33
2022-08-22T21:23:12.557Z,2.75
2022-08-22T21:26:01.416Z,2.08
2022-08-22T21:28:32.606Z,2.00
2022-08-22T21:31:07.539Z,1.65
2022-08-22T21:33:34.206Z,0.90
2022-08-22T21:36:01.079Z,2.13
2022-08-22T21:38:28.599Z,1.50
2022-08-22T21:41:02.903Z,1.98
2022-08-22T21:43:39.456Z,3.75
2022-08-22T21:46:08.645Z,2.95
2022-08-22T21:48:56.686Z,2.22
2022-08-22T21:51:36.626Z,1.20
2022-08-22T21:54:40.160Z,2.50
2022-08-22T21:57:09.359Z,2.88
2022-08-22T21:59:51.733Z,1.23
2022-08-22T22:02:28.245Z,2.67
2022-08-22T22:04:56.037Z,3.50
2022-08-22T22:07:24.336Z,2.00
2022-08-22T22:09:54.885Z,3.60
2022-08-22T22:12:23.771Z,2.08
2022-08-22T22:14:50.912Z,3.40
2022-08-22T22:17:19.212Z,1.40
2022-08-22T22:19:46.410Z,2.30
2022-08-22T22:22:13.083Z,1.55
2022-08-22T22:24:39.922Z,1.67
2022-08-22T22:27:07.099Z,2.15
2022-08-22T22:29:35.796Z,2.30
2022-08-22T22:32:02.812Z,5.95
2022-08-22T22:34:29.439Z,1.50
2022-08-22T22:36:56.144Z,1.58
2022-08-22T22:39:22.829Z,2.70
2022-08-22T22:41:50.404Z,3.42
2022-08-22T22:44:17.514Z,3.13
2022-08-22T22:46:48.355Z,5.30
2022-08-22T22:49:15.105Z,2.45
2022-08-22T22:51:41.621Z,4.57
2022-08-22T22:54:08.391Z,2.90
2022-08-22T22:56:37.801Z,3.67
2022-08-22T22:59:13.347Z,6.22
2022-08-22T23:02:01.416Z,5.20
2022-08-22T23:04:29.463Z,3.13
2022-08-22T23:06:56.024Z,3.45
2022-08-22T23:09:38.127Z,3.72
2022-08-22T23:12:11.075Z,4.00
2022-08-22T23:14:37.656Z,3.50
2022-08-22T23:17:05.033Z,6.95
2022-08-22T23:19:31.866Z,5.22
2022-08-22T23:21:59.920Z,4.55
2022-08-22T23:24:29.974Z,5.38
2022-08-22T23:26:57.335Z,3.05
2022-08-22T23:29:24.827Z,4.03
2022-08-22T23:31:55.783Z,4.60
2022-08-22T23:34:32.707Z,4.13
2022-08-22T23:37:06.380Z,3.17
2022-08-22T23:39:34.691Z,3.58
2022-08-22T23:42:02.307Z,4.10
2022-08-22T23:44:32.452Z,2.72
2022-08-22T23:47:00.211Z,2.92
2022-08-22T23:49:28.225Z,2.92
2022-08-22T23:51:55.340Z,4.65
2022-08-22T23:54:22.666Z,4.30
2022-08-22T23:56:52.636Z,4.90
2022-08-22T23:59:22.787Z,3.97
